Time;durP1;ratioP1;P1;durP2;ratioP2;P2;SDS_P1;SDS_P2;PMS_P1;PMS_P2;Temp;Humidity;BMP_temperature;BMP_pressure;BME280_temperature;BME280_humidity;BME280_pressure;Samples;Min_cycle;Max_cycle;Signal;HPM_P1;HPM_P2
2021/05/01 00:00:59;;;;;;;13.40;6.70;;;;;;;16.33;61.96;101384.02;1827239;78;21284;-47
2021/05/01 00:03:27;;;;;;;16.93;7.30;;;;;;;16.32;62.17;101387.58;1827289;78;21257;-46
2021/05/01 00:05:58;;;;;;;11.03;6.33;;;;;;;16.30;62.42;101377.97;1824934;78;21140;-46
2021/05/01 00:08:29;;;;;;;11.73;5.92;;;;;;;16.31;62.80;101378.83;1827549;78;21101;-49
2021/05/01 00:11:01;;;;;;;13.58;5.97;;;;;;;16.29;63.05;101372.33;1813668;78;21100;-45
2021/05/01 00:13:30;;;;;;;9.10;5.20;;;;;;;16.29;63.31;101367.52;1827565;78;21120;-50
2021/05/01 00:15:59;;;;;;;10.00;5.50;;;;;;;16.29;63.44;101372.78;1827869;78;21160;-50
2021/05/01 00:18:27;;;;;;;7.80;6.03;;;;;;;16.29;63.40;101367.08;1803870;78;21538;-47
2021/05/01 00:20:54;;;;;;;8.40;5.47;;;;;;;16.32;63.45;101365.25;1827580;78;21133;-50
2021/05/01 00:23:22;;;;;;;9.30;5.75;;;;;;;16.34;63.34;101356.86;1826517;78;21165;-50
2021/05/01 00:25:51;;;;;;;7.47;5.62;;;;;;;16.36;63.31;101352.41;1827239;78;21128;-48
2021/05/01 00:28:19;;;;;;;9.98;5.70;;;;;;;16.39;63.11;101354.91;1827677;78;21161;-46
2021/05/01 00:30:46;;;;;;;12.70;6.47;;;;;;;16.38;63.04;101354.08;1827306;78;21270;-49
2021/05/01 00:33:14;;;;;;;11.73;5.83;;;;;;;16.38;62.85;101353.21;1824378;78;21136;-51
2021/05/01 00:35:43;;;;;;;9.00;4.97;;;;;;;16.35;62.76;101348.05;1827716;78;21172;-46
2021/05/01 00:38:11;;;;;;;9.48;6.12;;;;;;;16.36;62.80;101358.98;1827137;78;21597;-49
2021/05/01 00:40:39;;;;;;;10.38;7.15;;;;;;;16.35;62.73;101362.50;1827227;78;21093;-46
2021/05/01 00:43:06;;;;;;;7.67;5.42;;;;;;;16.33;62.75;101368.27;1820553;78;21537;-49
2021/05/01 00:45:34;;;;;;;9.35;5.75;;;;;;;16.30;62.79;101377.10;1827427;78;21561;-46
2021/05/01 00:48:03;;;;;;;11.15;5.65;;;;;;;16.27;63.04;101382.03;1827139;78;21596;-46
2021/05/01 00:50:31;;;;;;;8.20;5.53;;;;;;;16.27;63.27;101387.28;1827262;78;21142;-49
2021/05/01 00:52:59;;;;;;;8.75;6.08;;;;;;;16.30;63.36;101385.84;1827678;78;21097;-47
2021/05/01 00:55:30;;;;;;;8.23;6.03;;;;;;;16.43;63.20;101385.41;1825074;78;21156;-47
2021/05/01 00:57:58;;;;;;;10.95;6.15;;;;;;;16.48;63.14;101383.48;1827252;78;21128;-49
2021/05/01 01:02:56;;;;;;;7.33;5.17;;;;;;;16.52;63.17;101380.73;1827421;78;21151;-51
2021/05/01 01:05:25;;;;;;;9.45;5.53;;;;;;;16.52;63.24;101382.05;1827613;78;21160;-47
2021/05/01 01:07:52;;;;;;;8.90;5.75;;;;;;;16.53;63.30;101385.05;1827514;78;21116;-48
2021/05/01 01:10:21;;;;;;;8.88;5.78;;;;;;;16.55;63.33;101377.14;1824603;78;21271;-49
2021/05/01 01:12:50;;;;;;;9.63;6.03;;;;;;;16.59;63.26;101379.58;1825939;78;21137;-47
2021/05/01 01:15:24;;;;;;;12.60;6.75;;;;;;;16.62;63.03;101370.73;1827529;78;21525;-50
2021/05/01 01:17:51;;;;;;;12.45;7.22;;;;;;;16.64;62.95;101371.53;1827034;78;21121;-46
2021/05/01 01:20:20;;;;;;;8.75;5.72;;;;;;;16.64;62.92;101376.34;1827609;78;21561;-48
2021/05/01 01:22:48;;;;;;;10.85;6.00;;;;;;;16.65;62.83;101379.83;1827329;78;21160;-46
2021/05/01 01:25:15;;;;;;;8.48;5.42;;;;;;;16.63;62.85;101381.17;1827669;78;21133;-47
2021/05/01 01:27:45;;;;;;;9.63;5.70;;;;;;;16.63;62.76;101377.72;1827297;78;21545;-51
2021/05/01 01:30:15;;;;;;;10.63;6.60;;;;;;;16.63;62.70;101388.23;1827228;78;21105;-46
2021/05/01 01:32:43;;;;;;;9.83;5.60;;;;;;;16.63;62.58;101386.91;1827207;78;21121;-50
2021/05/01 01:35:13;;;;;;;9.45;6.17;;;;;;;16.61;62.47;101388.27;1820418;78;21259;-48
2021/05/01 01:37:44;;;;;;;9.78;5.80;;;;;;;16.59;62.49;101389.26;1827275;78;21132;-50
2021/05/01 01:40:13;;;;;;;12.30;6.35;;;;;;;16.57;62.44;101392.39;1810677;78;21528;-48
2021/05/01 01:42:41;;;;;;;13.03;6.72;;;;;;;16.55;62.38;101390.28;1826747;78;21164;-50
2021/05/01 01:45:11;;;;;;;11.85;6.65;;;;;;;16.55;62.21;101396.84;1827267;78;21120;-47
2021/05/01 01:47:39;;;;;;;10.38;6.30;;;;;;;16.52;62.10;101400.88;1827227;78;21144;-47
2021/05/01 01:50:11;;;;;;;14.13;5.83;;;;;;;16.51;61.94;101405.27;1827616;78;21283;-47
2021/05/01 01:52:40;;;;;;;11.57;6.10;;;;;;;16.49;61.98;101412.77;1827741;78;21168;-51
2021/05/01 01:55:10;;;;;;;10.30;6.25;;;;;;;16.48;62.02;101416.33;1827369;78;21148;-46
2021/05/01 01:57:38;;;;;;;11.97;6.83;;;;;;;16.46;62.08;101419.46;1827468;78;21159;-46
2021/05/01 02:00:13;;;;;;;12.10;6.03;;;;;;;16.46;62.11;101423.40;1827368;78;21172;-48
2021/05/01 02:02:42;;;;;;;12.37;6.17;;;;;;;16.46;62.10;101424.72;1788555;80;21218;-47
2021/05/01 02:05:12;;;;;;;11.40;6.42;;;;;;;16.45;62.12;101422.98;1794956;80;21148;-48
2021/05/01 02:07:40;;;;;;;10.90;6.20;;;;;;;16.45;62.13;101419.05;1794860;80;21167;-47
2021/05/01 02:10:09;;;;;;;9.25;6.17;;;;;;;16.43;62.27;101414.30;1794555;80;21154;-47
2021/05/01 02:12:40;;;;;;;10.98;6.28;;;;;;;16.42;62.24;101418.72;1794504;80;21164;-49
2021/05/01 02:15:13;;;;;;;13.08;6.25;;;;;;;16.42;62.04;101417.86;1794304;80;21146;-51
2021/05/01 02:17:43;;;;;;;;;;;;;;;16.41;61.88;101426.63;1797130;80;21136;-49
2021/05/01 02:20:13;;;;;;;12.73;6.72;;;;;;;16.42;61.87;101429.67;1794945;80;20135;-49
2021/05/01 02:22:42;;;;;;;;;;;;;;;16.40;62.02;101429.73;1797117;80;21179;-53
2021/05/01 02:25:12;;;;;;;10.08;6.28;;;;;;;16.40;62.12;101424.93;1794325;80;20150;-49
2021/05/01 02:27:42;;;;;;;11.40;6.62;;;;;;;16.38;62.11;101424.13;1794501;80;21171;-48
2021/05/01 02:30:20;;;;;;;12.30;6.65;;;;;;;16.39;62.17;101428.45;1794443;80;21179;-49
2021/05/01 02:32:54;;;;;;;9.20;6.72;;;;;;;16.43;62.19;101420.42;1771557;79;22979;-51
2021/05/01 02:35:31;;;;;;;11.10;7.03;;;;;;;16.39;61.98;101431.08;1737222;82;21556;-47
2021/05/01 02:37:59;;;;;;;8.83;6.25;;;;;;;16.37;62.07;101428.52;1739220;82;21176;-48
2021/05/01 02:40:31;;;;;;;7.15;5.87;;;;;;;16.37;62.16;101427.65;1739947;82;21596;-48
2021/05/01 02:43:08;;;;;;;11.18;6.95;;;;;;;16.37;62.26;101430.28;1735120;82;21192;-49
2021/05/01 02:45:36;;;;;;;8.55;6.70;;;;;;;16.39;61.97;101432.39;1741380;82;21188;-50
2021/05/01 02:48:07;;;;;;;11.97;7.15;;;;;;;16.40;61.57;101432.81;1729906;82;21105;-51
2021/05/01 02:50:35;;;;;;;14.25;7.20;;;;;;;16.39;61.50;101438.52;1740651;82;21124;-51
2021/05/01 02:53:04;;;;;;;10.53;7.08;;;;;;;16.37;61.39;101436.84;1737981;82;21180;-48
2021/05/01 02:55:34;;;;;;;12.60;7.37;;;;;;;16.35;61.26;101443.91;1738728;82;21140;-49
2021/05/01 02:58:02;;;;;;;11.15;6.97;;;;;;;16.31;61.34;101441.86;1737231;82;21149;-49
2021/05/01 03:00:30;;;;;;;10.18;7.17;;;;;;;16.28;61.45;101448.06;1740269;82;21314;-51
2021/05/01 03:02:58;;;;;;;12.70;9.43;;;;;;;16.25;61.69;101448.19;1735025;82;21553;-54
2021/05/01 03:05:27;;;;;;;15.45;9.48;;;;;;;16.21;61.66;101454.45;1744073;82;21148;-51
2021/05/01 03:07:55;;;;;;;12.13;7.80;;;;;;;16.27;61.48;101461.26;1732175;82;21156;-51
2021/05/01 03:10:26;;;;;;;13.72;8.50;;;;;;;16.28;61.35;101469.08;1743529;82;21278;-50
2021/05/01 03:12:53;;;;;;;12.70;8.33;;;;;;;16.30;61.37;101466.39;1735354;82;21184;-53
2021/05/01 03:15:22;;;;;;;13.50;8.60;;;;;;;16.33;61.42;101466.75;1742693;82;21125;-49
2021/05/01 03:17:50;;;;;;;9.98;8.13;;;;;;;16.37;61.61;101461.80;1738967;82;21143;-51
2021/05/01 03:20:19;;;;;;;9.75;7.47;;;;;;;16.43;61.81;101467.70;1738991;82;21141;-48
2021/05/01 03:22:48;;;;;;;9.28;7.00;;;;;;;16.47;62.02;101459.25;1740312;82;21172;-51
2021/05/01 03:25:17;;;;;;;7.08;6.35;;;;;;;16.53;62.33;101461.70;1740937;82;21186;-51
2021/05/01 03:27:45;;;;;;;10.45;5.60;;;;;;;16.57;62.57;101460.23;1733790;82;21157;-49
2021/05/01 03:30:16;;;;;;;6.58;5.65;;;;;;;16.64;62.68;101458.24;1744562;82;21156;-48
2021/05/01 03:32:44;;;;;;;7.90;6.15;;;;;;;16.74;62.67;101454.37;1721411;82;21577;-52
2021/05/01 03:35:12;;;;;;;7.45;5.67;;;;;;;16.88;62.61;101456.04;1729634;82;21287;-48
2021/05/01 03:37:42;;;;;;;6.70;5.37;;;;;;;17.04;62.31;101460.68;1728068;82;21141;-50
2021/05/01 03:40:11;;;;;;;6.37;5.22;;;;;;;17.20;61.75;101458.35;1721764;82;21149;-48
2021/05/01 03:42:39;;;;;;;6.42;5.08;;;;;;;17.29;61.31;101465.88;1728370;82;21173;-48
2021/05/01 03:45:08;;;;;;;5.33;4.83;;;;;;;17.33;61.07;101455.64;1724583;82;21133;-50
2021/05/01 03:47:36;;;;;;;7.87;5.28;;;;;;;17.37;60.93;101454.59;1725052;82;21184;-53
2021/05/01 03:50:07;;;;;;;5.50;5.00;;;;;;;17.40;60.82;101448.38;1723976;82;21157;-52
2021/05/01 03:52:35;;;;;;;7.03;5.87;;;;;;;17.40;60.81;101449.23;1726699;82;21161;-48
2021/05/01 03:55:05;;;;;;;7.00;5.72;;;;;;;17.41;60.80;101453.59;1722663;82;21311;-51
2021/05/01 03:57:35;;;;;;;5.42;4.80;;;;;;;17.43;60.80;101462.28;1721397;82;21149;-51
2021/05/01 04:00:05;;;;;;;5.25;4.75;;;;;;;17.45;60.88;101460.45;1731075;81;21565;-47
2021/05/01 04:02:35;;;;;;;6.42;5.00;;;;;;;17.47;60.94;101461.25;1725440;82;21153;-52
2021/05/01 04:05:05;;;;;;;6.20;5.17;;;;;;;17.50;60.96;101463.77;1719853;82;21585;-48
2021/05/01 04:07:32;;;;;;;7.95;6.10;;;;;;;17.51;60.96;101468.14;1727388;82;21173;-54
2021/05/01 04:10:01;;;;;;;5.72;5.05;;;;;;;17.55;60.92;101480.26;1724582;82;21339;-51
2021/05/01 04:12:29;;;;;;;5.22;4.72;;;;;;;17.56;60.88;101488.53;1725742;82;21288;-48
2021/05/01 04:14:57;;;;;;;8.28;5.95;;;;;;;17.60;60.83;101490.13;1729123;82;21161;-50
2021/05/01 04:17:26;;;;;;;6.50;5.45;;;;;;;17.63;60.80;101491.79;1731006;82;21121;-49
2021/05/01 04:19:54;;;;;;;8.93;5.97;;;;;;;17.65;60.79;101485.56;1725051;82;21614;-50
2021/05/01 04:22:23;;;;;;;5.80;5.20;;;;;;;17.68;60.82;101484.10;1721908;82;21161;-47
2021/05/01 04:24:51;;;;;;;7.97;5.20;;;;;;;17.71;60.77;101482.69;1728455;82;21145;-51
2021/05/01 04:27:19;;;;;;;9.60;4.87;;;;;;;17.73;60.77;101487.42;1722420;82;21148;-48
2021/05/01 04:29:46;;;;;;;8.80;5.90;;;;;;;17.75;60.89;101480.78;1724566;82;21161;-48
2021/05/01 04:32:14;;;;;;;4.83;4.28;;;;;;;17.76;60.88;101482.02;1724900;81;21303;-47
2021/05/01 04:34:43;;;;;;;6.50;5.62;;;;;;;17.80;60.92;101492.83;1724395;82;21299;-47
2021/05/01 04:37:11;;;;;;;6.22;5.65;;;;;;;17.81;60.79;101479.21;1726828;82;21582;-50
2021/05/01 04:39:40;;;;;;;8.00;5.42;;;;;;;17.83;60.79;101486.14;1727427;82;21130;-48
2021/05/01 04:42:09;;;;;;;5.87;4.50;;;;;;;17.86;60.85;101496.56;1720185;82;21198;-51
2021/05/01 04:44:38;;;;;;;6.70;6.00;;;;;;;17.88;60.92;101498.67;1730809;82;21145;-48
2021/05/01 04:47:06;;;;;;;5.90;5.37;;;;;;;17.92;60.98;101490.18;1718505;82;21279;-51
2021/05/01 04:49:35;;;;;;;7.67;6.37;;;;;;;17.93;61.02;101493.68;1728900;82;21141;-51
2021/05/01 04:52:05;;;;;;;7.30;6.58;;;;;;;17.91;61.06;101490.25;1722953;82;21169;-52
2021/05/01 04:54:32;;;;;;;11.05;6.75;;;;;;;17.84;61.28;101489.19;1724219;82;21175;-48
2021/05/01 04:57:00;;;;;;;5.78;5.28;;;;;;;17.82;61.57;101489.70;1727734;82;21173;-50
2021/05/01 04:59:28;;;;;;;8.15;6.33;;;;;;;17.82;61.76;101484.44;1721385;82;21185;-47
2021/05/01 05:01:57;;;;;;;7.45;6.50;;;;;;;17.88;61.89;101484.19;1727504;82;21330;-51
2021/05/01 05:04:25;;;;;;;9.13;7.10;;;;;;;17.93;62.02;101491.88;1724234;82;21172;-51
2021/05/01 05:06:53;;;;;;;9.85;7.20;;;;;;;17.96;62.18;101490.45;1725169;82;21169;-47
2021/05/01 05:09:21;;;;;;;8.00;7.00;;;;;;;17.99;62.24;101489.00;1724183;82;21597;-51
2021/05/01 05:11:49;;;;;;;10.43;8.00;;;;;;;18.03;62.34;101482.72;1726685;82;21612;-49
2021/05/01 05:14:18;;;;;;;8.70;7.40;;;;;;;18.05;62.44;101487.91;1712016;82;21149;-47
2021/05/01 05:16:45;;;;;;;11.18;6.92;;;;;;;18.06;62.58;101488.30;1731254;82;21129;-51
2021/05/01 05:19:13;;;;;;;8.53;7.12;;;;;;;18.05;62.64;101492.73;1725860;82;21185;-51
2021/05/01 05:21:42;;;;;;;8.53;6.47;;;;;;;18.07;62.79;101488.70;1726798;81;21149;-46
2021/05/01 05:24:10;;;;;;;7.83;6.60;;;;;;;18.13;62.93;101491.09;1721634;82;21117;-51
2021/05/01 05:26:39;;;;;;;11.73;6.95;;;;;;;18.18;62.93;101491.28;1730317;82;21161;-47
2021/05/01 05:29:09;;;;;;;10.38;7.90;;;;;;;18.24;63.05;101497.61;1718460;82;21178;-50
2021/05/01 05:31:36;;;;;;;10.80;6.20;;;;;;;18.38;63.68;101485.20;1729937;82;21161;-50
2021/05/01 05:34:05;;;;;;;8.55;7.22;;;;;;;18.71;63.14;101485.11;1721538;82;21326;-50
2021/05/01 05:36:33;;;;;;;6.12;5.05;;;;;;;19.07;62.79;101490.05;1725577;82;21554;-51
2021/05/01 05:39:02;;;;;;;8.20;5.40;;;;;;;19.54;61.48;101488.38;1726377;82;21157;-48
2021/05/01 05:41:31;;;;;;;7.55;5.70;;;;;;;19.93;60.34;101483.80;1729920;82;21165;-50
2021/05/01 05:44:00;;;;;;;8.90;6.67;;;;;;;20.37;59.26;101486.91;1728701;82;21580;-48
2021/05/01 05:46:28;;;;;;;7.15;4.90;;;;;;;20.76;58.17;101485.73;1725349;82;21180;-48
2021/05/01 05:48:56;;;;;;;12.00;7.17;;;;;;;21.21;57.29;101484.24;1726793;82;21597;-50
2021/05/01 05:51:24;;;;;;;8.58;5.28;;;;;;;21.71;56.22;101486.30;1721021;82;21586;-48
2021/05/01 05:53:52;;;;;;;5.37;4.53;;;;;;;22.24;54.73;101485.43;1720977;82;21161;-45
2021/05/01 05:56:20;;;;;;;6.05;4.40;;;;;;;22.66;52.74;101482.06;1726073;82;21125;-49
2021/05/01 05:58:48;;;;;;;6.85;4.03;;;;;;;23.00;51.78;101476.89;1724306;82;21126;-47
2021/05/01 06:01:16;;;;;;;5.05;3.77;;;;;;;23.38;50.90;101474.04;1725318;82;21602;-46
2021/05/01 06:03:47;;;;;;;6.78;4.50;;;;;;;23.72;49.61;101479.39;1723354;82;21177;-52
2021/05/01 06:06:25;;;;;;;5.37;4.75;;;;;;;23.96;48.97;101474.65;1728214;82;21315;-47
2021/05/01 06:08:54;;;;;;;8.68;4.60;;;;;;;24.28;48.23;101483.66;1722830;82;21106;-48
2021/05/01 06:11:23;;;;;;;6.15;5.30;;;;;;;24.59;47.42;101481.92;1728382;82;21317;-47
2021/05/01 06:13:52;;;;;;;8.08;5.03;;;;;;;24.87;46.87;101485.27;1718462;82;21154;-50
2021/05/01 06:16:20;;;;;;;6.95;4.97;;;;;;;25.19;46.37;101487.02;1730740;82;21149;-51
2021/05/01 06:18:50;;;;;;;5.37;4.53;;;;;;;25.58;45.65;101492.66;1722725;82;21295;-48
2021/05/01 06:21:18;;;;;;;5.28;4.62;;;;;;;26.12;43.91;101494.45;1724337;82;21189;-47
2021/05/01 06:23:45;;;;;;;7.15;4.97;;;;;;;26.12;43.91;101494.45;1727489;82;21106;-50
2021/05/01 06:26:13;;;;;;;5.92;5.17;;;;;;;26.16;43.62;101495.92;1700906;82;21314;-50
2021/05/01 06:28:41;;;;;;;8.63;5.90;;;;;;;26.27;43.35;101491.97;1727492;82;21208;-47
2021/05/01 06:31:11;;;;;;;6.25;5.65;;;;;;;26.23;43.03;101486.02;1723739;82;21200;-50
2021/05/01 06:33:40;;;;;;;10.15;5.42;;;;;;;26.06;43.11;101484.20;1736033;81;21183;-48
2021/05/01 06:36:09;;;;;;;9.20;6.83;;;;;;;25.93;43.40;101500.73;1737867;82;21164;-53
2021/05/01 06:38:39;;;;;;;6.95;5.00;;;;;;;25.83;43.49;101501.91;1737643;82;21545;-47
2021/05/01 06:41:08;;;;;;;6.20;5.60;;;;;;;25.83;43.17;101497.91;1745807;82;21204;-48
2021/05/01 06:44:08;;;;;;;6.97;4.80;;;;;;;25.80;42.73;101503.48;1741404;82;21157;-50
2021/05/01 06:46:39;;;;;;;6.75;5.30;;;;;;;25.80;42.73;101503.48;1734328;82;21160;-48
2021/05/01 06:49:11;;;;;;;6.17;5.35;;;;;;;25.58;43.09;101506.84;1711273;82;21149;-51
2021/05/01 06:51:40;;;;;;;9.10;5.10;;;;;;;25.58;43.09;101506.84;1733930;82;21205;-47
2021/05/01 06:54:09;;;;;;;5.87;5.28;;;;;;;25.55;42.73;101507.08;1740251;82;21148;-47
2021/05/01 06:56:40;;;;;;;6.17;5.12;;;;;;;25.50;42.44;101511.02;1738871;82;21156;-47
2021/05/01 06:59:09;;;;;;;6.12;4.70;;;;;;;25.41;42.41;101515.19;1677286;85;21136;-48
2021/05/01 07:01:40;;;;;;;6.42;5.05;;;;;;;25.34;42.58;101517.91;1672700;85;21167;-50
2021/05/01 07:04:09;;;;;;;9.25;5.40;;;;;;;25.32;42.33;101515.83;1679887;85;21219;-52
2021/05/01 07:06:37;;;;;;;6.70;4.97;;;;;;;25.27;42.30;101516.62;1675013;85;21301;-51
2021/05/01 07:09:05;;;;;;;5.65;5.12;;;;;;;25.24;42.67;101518.19;1657028;85;21686;-48
2021/05/01 07:11:34;;;;;;;7.03;5.50;;;;;;;25.42;42.40;101524.91;1672288;85;21652;-48
2021/05/01 07:14:03;;;;;;;7.62;5.50;;;;;;;25.57;42.42;101523.81;1678543;85;21583;-48
2021/05/01 07:16:31;;;;;;;6.30;5.62;;;;;;;25.57;42.42;101523.81;1672362;85;21258;-48
2021/05/01 07:19:01;;;;;;;6.55;5.30;;;;;;;25.67;42.10;101523.98;1633252;85;21156;-49
2021/05/01 07:21:29;;;;;;;6.30;5.67;;;;;;;25.67;42.16;101522.19;1670049;85;21164;-50
2021/05/01 07:23:57;;;;;;;8.30;5.75;;;;;;;25.77;42.11;101525.88;1677272;85;21338;-47
2021/05/01 07:26:25;;;;;;;6.92;5.22;;;;;;;25.84;41.83;101524.45;1673689;85;21179;-51
2021/05/01 07:28:53;;;;;;;9.33;5.10;;;;;;;25.88;41.57;101517.10;1680092;85;21152;-47
2021/05/01 07:31:25;;;;;;;12.85;6.55;;;;;;;25.86;41.73;101516.36;1675129;85;21703;-50
2021/05/01 07:33:53;;;;;;;11.68;6.08;;;;;;;25.80;41.50;101512.30;1674437;85;21243;-51
2021/05/01 07:36:33;;;;;;;7.22;5.78;;;;;;;25.65;41.57;101523.25;1671452;85;21353;-48
2021/05/01 07:39:01;;;;;;;8.20;6.00;;;;;;;25.14;42.14;101527.79;1664815;85;21199;-49
2021/05/01 07:41:31;;;;;;;7.92;6.08;;;;;;;25.14;42.14;101527.79;1672249;85;21184;-46
2021/05/01 07:44:08;;;;;;;9.65;5.20;;;;;;;24.87;42.81;101529.70;1780780;79;23723;-48
2021/05/01 07:46:38;;;;;;;10.93;5.70;;;;;;;24.56;43.23;101532.71;1744539;82;21154;-48
2021/05/01 07:49:07;;;;;;;10.77;6.43;;;;;;;24.34;43.75;101531.13;1725125;82;21279;-46
2021/05/01 07:51:39;;;;;;;9.50;5.55;;;;;;;24.14;44.18;101531.95;1737038;82;21293;-48
2021/05/01 07:54:09;;;;;;;10.88;6.90;;;;;;;23.97;44.71;101525.98;1734028;82;21152;-49
2021/05/01 07:56:39;;;;;;;10.43;6.42;;;;;;;23.83;45.26;101530.88;1740456;82;21116;-47
2021/05/01 07:59:08;;;;;;;12.90;8.23;;;;;;;23.71;45.29;101536.98;1738187;82;21144;-46
2021/05/01 08:01:36;;;;;;;11.08;7.10;;;;;;;23.56;45.43;101530.45;1735867;82;21584;-48
2021/05/01 08:04:05;;;;;;;12.82;7.25;;;;;;;23.41;45.94;101532.30;1736671;82;21121;-48
2021/05/01 08:06:33;;;;;;;10.32;7.30;;;;;;;23.28;46.47;101536.62;1738629;82;21120;-51
2021/05/01 08:09:01;;;;;;;9.50;7.12;;;;;;;23.19;46.69;101545.14;1738108;82;21117;-47
2021/05/01 08:11:30;;;;;;;7.70;6.90;;;;;;;23.08;46.77;101544.97;1736552;82;21156;-49
2021/05/01 08:13:58;;;;;;;10.30;7.37;;;;;;;22.92;46.98;101545.48;1741915;82;21176;-46
2021/05/01 08:16:26;;;;;;;8.33;7.03;;;;;;;22.72;47.47;101549.81;1732074;82;21149;-49
2021/05/01 08:18:57;;;;;;;10.18;6.15;;;;;;;22.52;48.10;101554.45;1741579;80;21109;-49
2021/05/01 08:21:26;;;;;;;8.95;6.00;;;;;;;22.36;48.40;101558.13;1736959;82;21132;-49
2021/05/01 08:23:55;;;;;;;10.40;6.85;;;;;;;22.25;49.12;101566.69;1742512;82;21149;-49
2021/05/01 08:26:23;;;;;;;9.75;6.20;;;;;;;22.22;49.44;101570.83;1744651;81;21575;-46
2021/05/01 08:28:52;;;;;;;14.43;6.70;;;;;;;22.21;49.47;101565.16;1731968;82;21304;-48
2021/05/01 08:31:19;;;;;;;7.85;5.30;;;;;;;22.23;49.67;101573.02;1742442;82;21596;-47
2021/05/01 08:33:48;;;;;;;8.48;5.83;;;;;;;22.23;49.53;101577.85;1736865;81;21132;-46
2021/05/01 08:36:18;;;;;;;10.55;5.92;;;;;;;22.23;49.46;101583.62;1739967;82;21528;-46
2021/05/01 08:38:46;;;;;;;10.90;5.97;;;;;;;22.22;49.54;101584.55;1740447;82;21569;-49
2021/05/01 08:41:14;;;;;;;7.85;5.30;;;;;;;22.19;49.57;101582.95;1738038;82;21188;-48
2021/05/01 08:43:42;;;;;;;7.50;5.12;;;;;;;22.16;49.79;101579.13;1727702;82;21157;-49
2021/05/01 08:46:13;;;;;;;5.80;4.67;;;;;;;22.17;49.92;101585.30;1719166;82;21161;-50
2021/05/01 08:48:44;;;;;;;7.53;4.42;;;;;;;22.20;50.13;101593.91;1725815;82;21180;-46
2021/05/01 08:51:15;;;;;;;9.23;4.93;;;;;;;22.24;50.55;101586.17;1684956;84;21174;-46
2021/05/01 08:53:48;;;;;;;8.73;5.78;;;;;;;22.36;50.02;101581.49;1761161;79;28130;-48
2021/05/01 08:56:19;;;;;;;8.73;5.03;;;;;;;22.36;50.02;101581.49;1729959;82;21747;-48
2021/05/01 08:58:49;;;;;;;7.37;5.30;;;;;;;22.42;49.72;101586.94;1733918;81;21148;-47
2021/05/01 09:01:17;;;;;;;8.00;5.03;;;;;;;22.42;49.66;101594.39;1739617;82;21172;-46
2021/05/01 09:03:45;;;;;;;10.03;4.90;;;;;;;22.38;49.54;101598.16;1739069;82;21259;-49
2021/05/01 09:06:13;;;;;;;9.70;5.17;;;;;;;22.33;49.79;101600.70;1731733;82;21176;-45
2021/05/01 09:08:41;;;;;;;8.35;5.58;;;;;;;22.26;50.02;101594.89;1720905;82;21710;-47
2021/05/01 09:11:09;;;;;;;6.92;5.08;;;;;;;22.21;50.05;101599.63;1738191;82;21334;-48
2021/05/01 09:13:48;;;;;;;6.78;4.53;;;;;;;22.19;50.33;101602.83;1737030;82;21164;-49
2021/05/01 09:16:16;;;;;;;9.28;5.12;;;;;;;22.19;50.44;101609.45;1732145;82;21159;-49
2021/05/01 09:18:53;;;;;;;6.72;5.25;;;;;;;22.20;50.51;101593.91;1739764;82;21112;-51
2021/05/01 09:21:26;;;;;;;9.63;5.50;;;;;;;22.23;50.39;101607.48;1737872;82;21144;-49
2021/05/01 09:23:54;;;;;;;8.23;5.17;;;;;;;22.23;50.39;101599.06;1737121;82;21133;-47
2021/05/01 09:26:41;;;;;;;7.20;5.35;;;;;;;22.23;50.53;101599.06;1741824;82;21284;-47
2021/05/01 09:29:10;;;;;;;6.37;5.05;;;;;;;22.25;50.32;101607.78;1736515;82;21700;-51
2021/05/01 09:31:46;;;;;;;8.83;5.47;;;;;;;22.26;50.26;101601.98;1686988;83;21585;-47
2021/05/01 09:34:15;;;;;;;7.75;5.65;;;;;;;22.22;50.26;101596.01;1737203;82;21125;-49
2021/05/01 09:36:42;;;;;;;6.12;5.15;;;;;;;22.19;50.61;101598.85;1701349;82;21117;-54
2021/05/01 09:39:14;;;;;;;11.55;5.70;;;;;;;22.17;50.62;101596.76;1709695;82;21180;-49
2021/05/01 09:41:45;;;;;;;8.93;5.35;;;;;;;22.17;50.70;101598.09;1738716;82;21153;-50
2021/05/01 09:44:17;;;;;;;9.08;5.95;;;;;;;22.18;50.91;101599.78;1736946;82;21164;-49
2021/05/01 09:46:50;;;;;;;10.13;5.53;;;;;;;22.22;50.96;101598.66;1732500;82;21152;-50
2021/05/01 09:49:31;;;;;;;6.25;5.55;;;;;;;22.26;50.90;101602.84;1744597;82;21157;-47
2021/05/01 09:52:02;;;;;;;7.33;5.47;;;;;;;22.30;50.82;101596.42;1732410;82;21156;-47
2021/05/01 09:54:33;;;;;;;;;;;;;;;22.32;50.84;101583.94;1731674;82;21141;-50
2021/05/01 09:57:08;;;;;;;7.35;5.28;;;;;;;22.35;50.75;101586.42;1743463;82;20133;-50
2021/05/01 09:59:42;;;;;;;7.30;5.55;;;;;;;22.35;50.60;101589.08;1735307;82;21295;-49
2021/05/01 10:02:13;;;;;;;8.08;5.58;;;;;;;22.38;50.61;101598.66;1748287;82;21153;-48
2021/05/01 10:04:42;;;;;;;8.18;6.15;;;;;;;22.38;50.67;101591.54;1685913;84;21163;-47
2021/05/01 10:07:12;;;;;;;9.38;6.00;;;;;;;22.40;50.75;101594.95;1668068;85;21224;-50
2021/05/01 10:09:42;;;;;;;6.92;5.80;;;;;;;22.42;50.51;101593.07;1651402;86;21184;-51
2021/05/01 10:12:16;;;;;;;7.67;5.60;;;;;;;22.47;50.40;101593.67;1650817;86;21180;-50
2021/05/01 10:14:52;;;;;;;7.58;6.00;;;;;;;22.49;50.43;101593.11;1650782;86;21628;-48
2021/05/01 10:17:28;;;;;;;9.30;6.55;;;;;;;22.51;50.25;101580.61;1650187;86;21173;-48
2021/05/01 10:20:00;;;;;;;7.83;5.92;;;;;;;22.53;50.26;101580.05;1650028;86;21343;-48
2021/05/01 10:22:39;;;;;;;8.05;5.80;;;;;;;22.55;50.31;101586.13;1648589;86;21333;-46
2021/05/01 10:25:26;;;;;;;9.03;5.10;;;;;;;22.58;50.17;101586.45;1648554;86;21172;-49
2021/05/01 10:28:07;;;;;;;9.20;5.37;;;;;;;22.59;50.16;101578.40;1654473;86;21145;-48
2021/05/01 10:30:52;;;;;;;10.23;6.15;;;;;;;22.61;50.31;101579.16;1649961;86;21172;-49
2021/05/01 10:33:32;;;;;;;9.10;6.30;;;;;;;22.65;50.32;101582.02;1654491;86;21334;-45
2021/05/01 10:36:27;;;;;;;6.90;5.83;;;;;;;22.73;50.15;101577.58;1770787;79;23124;-48
2021/05/01 10:39:06;;;;;;;9.13;6.42;;;;;;;22.72;50.04;101576.34;1725111;82;21155;-49
2021/05/01 10:41:36;;;;;;;9.00;6.35;;;;;;;22.73;49.89;101571.44;1741332;82;21556;-49
2021/05/01 10:44:06;;;;;;;7.17;6.33;;;;;;;22.72;49.94;101577.21;1741063;82;21140;-49
2021/05/01 10:46:41;;;;;;;9.43;7.08;;;;;;;22.70;49.99;101575.59;1727020;82;21117;-48
2021/05/01 10:49:10;;;;;;;9.65;5.53;;;;;;;22.71;50.01;101579.97;1744579;82;21537;-45
2021/05/01 10:51:46;;;;;;;6.87;5.28;;;;;;;22.70;50.25;101583.55;1738058;81;21342;-45
2021/05/01 10:54:22;;;;;;;8.65;6.12;;;;;;;22.72;50.21;101581.66;1736200;82;21166;-46
2021/05/01 10:56:54;;;;;;;9.88;5.90;;;;;;;22.77;50.19;101587.56;1740741;82;21274;-48
2021/05/01 10:59:26;;;;;;;;;;;;;;;22.83;50.11;101587.19;1697220;83;21188;-45
2021/05/01 11:02:01;;;;;;;7.90;5.90;;;;;;;22.92;49.92;101585.30;1816941;77;22876;-46
2021/05/01 11:04:32;;;;;;;;;;;;;;;22.90;49.76;101588.05;1829512;78;21120;-49
2021/05/01 11:07:13;;;;;;;10.60;6.45;;;;;;;22.89;49.68;101589.48;1812728;78;20131;-47
2021/05/01 11:09:47;;;;;;;8.55;6.00;;;;;;;22.83;49.82;101589.84;1753420;80;21587;-48
2021/05/01 11:12:18;;;;;;;9.73;7.37;;;;;;;22.77;50.00;101591.54;1788852;80;21155;-46
2021/05/01 11:15:05;;;;;;;9.50;7.83;;;;;;;22.71;50.06;101591.90;1740487;81;21181;-47
2021/05/01 11:17:41;;;;;;;10.32;7.72;;;;;;;22.65;50.35;101582.02;1736087;83;21193;-51
2021/05/01 11:20:17;;;;;;;8.70;7.25;;;;;;;22.61;50.40;101573.00;1731071;83;21209;-49
2021/05/01 11:22:52;;;;;;;8.00;6.35;;;;;;;22.60;50.54;101562.88;1813334;79;23404;-49
2021/05/01 11:25:22;;;;;;;8.10;6.70;;;;;;;22.54;50.50;101571.17;1783172;80;21163;-46
2021/05/01 11:27:52;;;;;;;9.40;6.85;;;;;;;22.51;50.55;101567.35;1783906;80;21155;-50
2021/05/01 11:30:25;;;;;;;8.68;6.75;;;;;;;22.51;50.68;101576.64;1785876;80;21140;-49
2021/05/01 11:32:53;;;;;;;7.08;6.40;;;;;;;22.48;50.76;101571.99;1784736;80;21305;-47
2021/05/01 11:35:28;;;;;;;9.10;6.17;;;;;;;22.45;50.81;101567.71;1791135;80;21144;-49
2021/05/01 11:38:00;;;;;;;7.12;6.42;;;;;;;22.40;51.05;101580.38;1785634;80;21132;-45
2021/05/01 11:40:35;;;;;;;8.33;5.67;;;;;;;22.39;51.13;101573.84;1748505;81;21297;-48